createdAt,value
2023-04-15T00:00:19.233Z,4.15
2023-04-15T00:02:50.447Z,4.43
2023-04-15T00:05:20.396Z,4.35
2023-04-15T00:12:53.804Z,3.38
2023-04-15T00:15:27.701Z,3.60
2023-04-15T00:17:57.296Z,3.47
2023-04-15T00:20:29.707Z,3.40
2023-04-15T00:23:01.166Z,3.70
2023-04-15T00:25:36.507Z,3.20
2023-04-15T00:28:09.261Z,3.75
2023-04-15T00:30:39.147Z,3.92
2023-04-15T00:33:08.978Z,4.15
2023-04-15T00:35:38.761Z,4.63
2023-04-15T00:38:12.516Z,4.95
2023-04-15T00:40:43.887Z,5.13
2023-04-15T00:43:16.560Z,5.20
2023-04-15T00:45:52.240Z,4.53
2023-04-15T00:48:24.425Z,5.05
2023-04-15T00:50:53.838Z,4.28
2023-04-15T00:53:26.705Z,4.15
2023-04-15T00:55:56.732Z,4.65
2023-04-15T00:58:30.051Z,4.35
2023-04-15T01:01:04.127Z,4.47
2023-04-15T01:03:33.982Z,4.30
2023-04-15T01:06:05.040Z,4.38
2023-04-15T01:08:37.179Z,4.57
2023-04-15T01:11:07.556Z,4.30
2023-04-15T01:13:38.717Z,4.50
2023-04-15T01:16:10.485Z,4.30
2023-04-15T01:18:43.627Z,4.10
2023-04-15T01:21:13.593Z,3.85
2023-04-15T01:23:43.432Z,4.30
2023-04-15T01:28:47.113Z,4.05
2023-04-15T01:31:17.760Z,4.15
2023-04-15T01:33:48.317Z,4.13
2023-04-15T01:36:21.340Z,4.13
2023-04-15T01:38:53.378Z,4.25
2023-04-15T01:41:25.793Z,3.95
2023-04-15T01:44:01.031Z,4.28
2023-04-15T01:46:30.845Z,4.22
2023-04-15T01:51:54.719Z,3.90
2023-04-15T01:54:34.133Z,3.83
2023-04-15T01:57:07.115Z,4.63
2023-04-15T01:59:41.247Z,4.30
2023-04-15T02:02:11.003Z,3.97
2023-04-15T02:07:12.703Z,4.68
2023-04-15T02:09:41.745Z,4.60
2023-04-15T02:12:10.781Z,4.00
2023-04-15T02:14:41.556Z,4.77
2023-04-15T02:17:11.029Z,4.43
2023-04-15T02:19:41.293Z,5.00
2023-04-15T02:22:13.550Z,4.43
2023-04-15T02:24:44.955Z,4.50
2023-04-15T02:27:17.869Z,4.68
2023-04-15T02:29:50.899Z,3.97
2023-04-15T02:32:20.218Z,4.50
2023-04-15T02:34:49.476Z,4.20
2023-04-15T02:37:20.312Z,5.15
2023-04-15T02:39:50.017Z,4.82
2023-04-15T02:42:18.740Z,5.63
2023-04-15T02:44:49.029Z,5.50
2023-04-15T02:47:18.084Z,6.50
2023-04-15T02:49:47.119Z,6.45
2023-04-15T02:52:16.441Z,6.40
2023-04-15T02:54:45.735Z,7.60
2023-04-15T02:57:14.701Z,7.60
2023-04-15T02:59:43.876Z,7.90
2023-04-15T03:02:14.523Z,7.75
2023-04-15T03:04:43.824Z,7.22
2023-04-15T03:07:12.800Z,6.38
2023-04-15T03:09:41.504Z,7.00
2023-04-15T03:12:10.658Z,7.22
2023-04-15T03:14:39.548Z,6.63
2023-04-15T03:17:08.810Z,6.63
2023-04-15T03:19:39.317Z,6.75
2023-04-15T03:22:08.246Z,6.30
2023-04-15T03:24:39.780Z,6.53
2023-04-15T03:27:10.790Z,6.05
2023-04-15T03:29:39.496Z,5.90
2023-04-15T03:32:08.497Z,5.95
2023-04-15T03:34:37.376Z,6.17
2023-04-15T03:37:07.849Z,5.10
2023-04-15T03:39:37.293Z,5.65
2023-04-15T03:42:06.232Z,5.53
2023-04-15T03:44:35.505Z,6.72
2023-04-15T03:47:04.728Z,6.38
2023-04-15T03:49:33.983Z,6.55
2023-04-15T03:52:02.990Z,6.47
2023-04-15T03:54:33.832Z,5.63
2023-04-15T03:57:03.482Z,5.55
2023-04-15T03:59:32.619Z,5.35
2023-04-15T04:02:02.256Z,4.78
2023-04-15T04:04:31.851Z,4.85
2023-04-15T04:07:01.524Z,4.47
2023-04-15T04:09:30.916Z,3.17
2023-04-15T04:12:03.048Z,2.42
2023-04-15T04:14:32.155Z,2.38
2023-04-15T04:17:01.558Z,2.10
2023-04-15T04:19:31.288Z,2.33
2023-04-15T04:22:00.751Z,2.30
2023-04-15T04:24:29.792Z,1.92
2023-04-15T04:26:59.204Z,2.30
2023-04-15T04:29:30.253Z,3.10
2023-04-15T04:31:59.393Z,3.10
2023-04-15T04:34:28.287Z,3.28
2023-04-15T04:36:57.576Z,2.63
2023-04-15T04:39:26.429Z,2.85
2023-04-15T04:41:55.951Z,2.38
2023-04-15T04:44:24.796Z,2.00
2023-04-15T04:46:55.514Z,1.85
2023-04-15T04:49:24.247Z,1.92
2023-04-15T04:51:53.284Z,1.80
2023-04-15T04:54:22.644Z,1.80
2023-04-15T04:56:51.665Z,1.33
2023-04-15T04:59:20.762Z,1.33
2023-04-15T05:01:49.700Z,1.70
2023-04-15T05:04:19.654Z,1.50
2023-04-15T05:09:16.777Z,1.48
2023-04-15T05:11:45.582Z,1.27
2023-04-15T05:14:14.078Z,1.00
2023-04-15T05:16:42.665Z,1.33
2023-04-15T05:19:14.201Z,1.30
2023-04-15T05:21:46.663Z,1.40
2023-04-15T05:24:15.642Z,1.10
2023-04-15T05:26:44.496Z,1.40
2023-04-15T05:29:13.311Z,1.10
2023-04-15T05:31:42.546Z,0.90
2023-04-15T05:34:11.936Z,0.77
2023-04-15T05:36:41.244Z,0.60
2023-04-15T05:39:12.225Z,0.60
2023-04-15T05:41:41.251Z,0.60
2023-04-15T05:44:10.112Z,0.70
2023-04-15T05:46:39.049Z,0.77
2023-04-15T05:49:11.754Z,0.60
2023-04-15T05:51:43.749Z,1.45
2023-04-15T05:54:19.938Z,1.30
2023-04-15T05:56:49.858Z,1.20
2023-04-15T05:59:22.344Z,1.30
2023-04-15T06:01:53.317Z,1.17
2023-04-15T06:04:26.082Z,0.95
2023-04-15T06:06:58.451Z,1.25
2023-04-15T06:09:29.544Z,0.70
2023-04-15T06:11:59.379Z,0.80
2023-04-15T06:16:57.343Z,0.90
2023-04-15T06:19:26.349Z,1.00
2023-04-15T06:21:55.338Z,0.90
2023-04-15T06:24:24.536Z,1.30
2023-04-15T06:26:55.015Z,1.58
2023-04-15T06:29:24.289Z,1.70
2023-04-15T06:31:53.138Z,1.90
2023-04-15T06:34:22.666Z,2.43
2023-04-15T06:36:51.305Z,2.75
2023-04-15T06:39:20.287Z,2.45
2023-04-15T06:41:49.677Z,2.90
2023-04-15T06:44:19.632Z,3.22
2023-04-15T06:46:48.622Z,3.40
2023-04-15T06:49:18.144Z,5.83
2023-04-15T06:51:47.384Z,6.60
2023-04-15T06:54:16.402Z,3.95
2023-04-15T06:56:45.132Z,5.37
2023-04-15T06:59:14.547Z,3.85
2023-04-15T07:01:45.275Z,3.95
2023-04-15T07:04:14.313Z,4.28
2023-04-15T07:06:43.411Z,4.33
2023-04-15T07:09:12.137Z,4.30
2023-04-15T07:11:40.796Z,4.40
2023-04-15T07:14:09.838Z,4.28
2023-04-15T07:16:38.991Z,4.77
2023-04-15T07:19:09.093Z,4.60
2023-04-15T07:21:38.590Z,5.03
2023-04-15T07:24:10.446Z,4.80
2023-04-15T07:26:39.123Z,5.55
2023-04-15T07:29:07.744Z,5.05
2023-04-15T07:31:36.965Z,4.70
2023-04-15T07:34:05.808Z,4.35
2023-04-15T07:36:36.845Z,4.47
2023-04-15T07:39:05.930Z,4.57
2023-04-15T07:41:34.928Z,5.33
2023-04-15T07:44:04.001Z,4.65
2023-04-15T07:46:32.921Z,4.67
2023-04-15T07:49:01.880Z,5.35
2023-04-15T07:51:30.912Z,6.20
2023-04-15T07:54:01.060Z,5.10
2023-04-15T07:56:30.033Z,5.10
2023-04-15T07:58:58.777Z,4.80
2023-04-15T08:01:27.617Z,4.72
2023-04-15T08:03:57.340Z,4.53
2023-04-15T08:06:27.417Z,4.50
2023-04-15T08:08:57.029Z,5.25
2023-04-15T08:11:27.762Z,5.72
2023-04-15T08:13:58.850Z,5.95
2023-04-15T08:16:29.545Z,5.32
2023-04-15T08:18:58.695Z,5.07
2023-04-15T08:21:30.801Z,4.93
2023-04-15T08:24:00.138Z,4.82
2023-04-15T08:26:30.402Z,4.50
2023-04-15T08:28:59.316Z,4.95
2023-04-15T08:31:28.669Z,5.00
2023-04-15T08:33:58.336Z,4.72
2023-04-15T08:36:27.336Z,4.00
2023-04-15T08:38:56.442Z,3.50
2023-04-15T08:41:26.185Z,4.43
2023-04-15T08:43:58.677Z,4.15
2023-04-15T08:46:27.801Z,3.75
2023-04-15T08:48:58.506Z,3.70
2023-04-15T08:51:27.685Z,3.40
2023-04-15T08:53:56.918Z,3.47
2023-04-15T08:56:26.603Z,3.50
2023-04-15T08:58:56.621Z,3.35
2023-04-15T09:01:25.673Z,3.03
2023-04-15T09:03:55.369Z,3.65
2023-04-15T09:06:24.540Z,2.75
2023-04-15T09:08:53.419Z,3.37
2023-04-15T09:11:23.410Z,3.30
2023-04-15T09:13:52.217Z,3.00
2023-04-15T09:16:22.225Z,2.45
2023-04-15T09:18:51.394Z,2.95
2023-04-15T09:21:20.388Z,2.80
2023-04-15T09:23:58.883Z,2.63
2023-04-15T09:26:34.601Z,3.00
2023-04-15T09:29:07.779Z,2.55
2023-04-15T09:31:38.200Z,2.33
2023-04-15T09:34:07.263Z,2.30
2023-04-15T09:36:42.125Z,2.60
2023-04-15T09:39:11.158Z,2.55
2023-04-15T09:41:40.355Z,2.07
2023-04-15T09:44:09.272Z,2.20
2023-04-15T09:46:46.424Z,1.90
2023-04-15T09:49:16.025Z,2.05
2023-04-15T09:51:54.116Z,2.03
2023-04-15T09:54:37.256Z,1.85
2023-04-15T09:57:10.312Z,2.03
2023-04-15T09:59:39.163Z,2.20
2023-04-15T10:02:09.319Z,2.42
2023-04-15T10:04:40.691Z,4.13
2023-04-15T10:07:10.441Z,3.80
2023-04-15T10:09:40.094Z,3.03
2023-04-15T10:12:09.146Z,2.10
2023-04-15T10:14:38.411Z,2.20
2023-04-15T10:17:07.284Z,3.85
2023-04-15T10:19:38.847Z,3.08
2023-04-15T10:22:08.425Z,3.70
2023-04-15T10:24:37.343Z,3.80
2023-04-15T10:27:07.564Z,4.38
2023-04-15T10:29:36.349Z,3.67
2023-04-15T10:32:05.438Z,2.55
2023-04-15T10:34:34.345Z,2.27
2023-04-15T10:37:04.852Z,3.08
2023-04-15T10:39:44.352Z,3.08
2023-04-15T10:42:14.191Z,2.15
2023-04-15T10:47:18.989Z,1.95
2023-04-15T10:49:48.789Z,2.00
2023-04-15T10:54:47.724Z,2.00
2023-04-15T10:57:18.177Z,1.50
2023-04-15T11:00:06.454Z,1.80
2023-04-15T11:02:45.828Z,1.85
2023-04-15T11:05:14.740Z,2.08
2023-04-15T11:07:49.720Z,2.03
2023-04-15T11:10:36.765Z,1.58
2023-04-15T11:13:07.544Z,1.83
2023-04-15T11:15:37.720Z,1.83
2023-04-15T11:18:11.719Z,3.17
2023-04-15T11:20:40.819Z,9.23
2023-04-15T11:23:15.137Z,3.93
2023-04-15T11:25:44.796Z,1.30
2023-04-15T11:28:15.489Z,1.07
2023-04-15T11:30:44.727Z,1.35
2023-04-15T11:33:14.228Z,1.40
2023-04-15T11:35:44.067Z,1.33
2023-04-15T11:38:14.238Z,1.35
2023-04-15T11:40:46.180Z,1.25
2023-04-15T11:43:18.762Z,1.55
2023-04-15T11:45:51.999Z,1.10
2023-04-15T11:48:21.141Z,1.90
2023-04-15T11:50:54.562Z,2.60
2023-04-15T11:53:23.482Z,1.42
2023-04-15T11:55:53.130Z,1.75
2023-04-15T11:58:23.511Z,1.40
2023-04-15T12:00:54.064Z,1.60
2023-04-15T12:03:26.569Z,1.52
2023-04-15T12:06:05.097Z,1.33
2023-04-15T12:08:49.054Z,1.30
2023-04-15T12:11:18.354Z,1.30
2023-04-15T12:13:49.869Z,1.40
2023-04-15T12:16:19.433Z,1.40
2023-04-15T12:18:48.259Z,1.50
2023-04-15T12:21:16.967Z,1.58
2023-04-15T12:23:50.549Z,1.38
2023-04-15T12:26:19.210Z,1.10
2023-04-15T12:28:49.187Z,1.33
2023-04-15T12:31:18.047Z,1.55
2023-04-15T12:33:50.021Z,1.60
2023-04-15T12:36:18.823Z,1.27
2023-04-15T12:38:47.567Z,1.75
2023-04-15T12:41:16.724Z,1.73
2023-04-15T12:43:46.638Z,1.50
2023-04-15T12:48:46.284Z,1.75
2023-04-15T12:51:15.547Z,1.58
2023-04-15T12:53:44.262Z,1.60
2023-04-15T12:56:13.207Z,1.67
2023-04-15T12:58:42.022Z,1.60
2023-04-15T13:01:11.174Z,1.50
2023-04-15T13:03:40.030Z,1.85
2023-04-15T13:06:10.175Z,2.10
2023-04-15T13:08:42.747Z,1.70
2023-04-15T13:11:17.277Z,1.75
2023-04-15T13:13:46.529Z,1.88
2023-04-15T13:16:15.670Z,1.85
2023-04-15T13:18:45.612Z,1.83
2023-04-15T13:23:44.433Z,1.70
2023-04-15T13:26:13.069Z,2.10
2023-04-15T13:28:41.750Z,1.80
2023-04-15T13:31:10.435Z,1.77
2023-04-15T13:33:39.559Z,1.60
2023-04-15T13:36:08.339Z,1.90
2023-04-15T13:38:36.951Z,1.88
2023-04-15T13:41:07.168Z,1.83
2023-04-15T13:43:36.622Z,1.98
2023-04-15T13:46:05.365Z,2.30
2023-04-15T13:48:34.124Z,1.88
2023-04-15T13:51:02.747Z,2.03
2023-04-15T13:53:37.941Z,2.30
2023-04-15T13:56:09.393Z,2.03
2023-04-15T13:58:38.590Z,2.15
2023-04-15T14:01:07.696Z,2.22
2023-04-15T14:03:37.103Z,2.50
2023-04-15T14:06:07.113Z,2.28
2023-04-15T14:08:35.756Z,2.47
2023-04-15T14:11:04.405Z,2.25
2023-04-15T14:13:34.474Z,2.42
2023-04-15T14:16:03.271Z,2.30
2023-04-15T14:18:32.000Z,2.17
2023-04-15T14:21:01.020Z,2.50
2023-04-15T14:23:29.611Z,2.60
2023-04-15T14:25:58.311Z,4.05
2023-04-15T14:28:27.006Z,5.40
2023-04-15T14:30:57.018Z,4.05
2023-04-15T14:33:25.968Z,3.10
2023-04-15T14:35:54.756Z,2.40
2023-04-15T14:38:23.449Z,2.47
2023-04-15T14:40:52.026Z,2.72
2023-04-15T14:43:20.672Z,5.68
2023-04-15T14:45:49.705Z,3.10
2023-04-15T14:48:19.718Z,3.10
2023-04-15T14:50:48.454Z,5.25
2023-04-15T14:53:17.446Z,6.63
2023-04-15T14:55:46.106Z,5.57
2023-04-15T14:58:14.791Z,3.30
2023-04-15T15:00:44.439Z,3.28
2023-04-15T15:03:13.869Z,3.42
2023-04-15T15:05:44.927Z,2.97
2023-04-15T15:08:14.392Z,2.92
2023-04-15T15:10:49.232Z,3.25
2023-04-15T15:13:19.540Z,2.80
2023-04-15T15:15:49.709Z,3.10
2023-04-15T15:18:18.893Z,4.47
2023-04-15T15:20:49.596Z,3.30
2023-04-15T15:23:25.793Z,3.50
2023-04-15T15:25:54.458Z,3.70
2023-04-15T15:28:23.119Z,3.50
2023-04-15T15:30:51.698Z,3.10
2023-04-15T15:33:20.736Z,3.28
2023-04-15T15:35:50.716Z,3.23
2023-04-15T15:38:19.378Z,3.42
2023-04-15T15:40:48.056Z,3.20
2023-04-15T15:43:16.818Z,3.78
2023-04-15T15:45:45.611Z,4.10
2023-04-15T15:48:14.403Z,4.18
2023-04-15T15:50:43.068Z,3.22
2023-04-15T15:53:17.876Z,3.38
2023-04-15T15:55:49.038Z,2.90
2023-04-15T15:58:17.652Z,3.17
2023-04-15T16:00:46.541Z,3.50
2023-04-15T16:03:15.447Z,3.20
2023-04-15T16:05:44.400Z,2.97
2023-04-15T16:08:14.337Z,3.28
2023-04-15T16:13:11.508Z,3.22
2023-04-15T16:15:40.267Z,3.15
2023-04-15T16:18:08.920Z,3.33
2023-04-15T16:20:37.653Z,3.33
2023-04-15T16:23:11.171Z,3.65
2023-04-15T16:25:41.360Z,3.15
2023-04-15T16:28:22.509Z,3.75
2023-04-15T16:30:54.785Z,3.30
2023-04-15T16:33:23.800Z,3.03
2023-04-15T16:35:53.008Z,3.60
2023-04-15T16:38:21.663Z,3.35
2023-04-15T16:40:52.615Z,3.53
2023-04-15T16:43:21.344Z,3.85
2023-04-15T16:45:51.423Z,4.68
2023-04-15T16:48:20.899Z,4.85
2023-04-15T16:50:49.919Z,5.25
2023-04-15T16:53:18.938Z,4.70
2023-04-15T16:55:47.919Z,4.93
2023-04-15T16:58:17.920Z,5.60
2023-04-15T17:00:46.553Z,8.68
2023-04-15T17:03:15.584Z,8.35
2023-04-15T17:05:44.245Z,10.90
2023-04-15T17:08:12.816Z,9.23
2023-04-15T17:10:41.603Z,8.73
2023-04-15T17:13:10.452Z,5.47
2023-04-15T17:15:40.655Z,4.38
2023-04-15T17:18:10.496Z,3.80
2023-04-15T17:20:39.151Z,3.70
2023-04-15T17:23:07.800Z,3.00
2023-04-15T17:25:36.431Z,5.00
2023-04-15T17:28:05.056Z,2.97
2023-04-15T17:30:34.468Z,3.55
2023-04-15T17:33:55.906Z,3.47
2023-04-15T17:35:53.586Z,3.65
2023-04-15T17:38:22.379Z,3.50
2023-04-15T17:40:51.346Z,3.70
2023-04-15T17:43:19.970Z,3.40
2023-04-15T17:45:48.702Z,3.70
2023-04-15T17:48:18.750Z,3.65
2023-04-15T17:50:47.783Z,3.55
2023-04-15T17:53:17.504Z,3.50
2023-04-15T17:55:46.342Z,3.83
2023-04-15T17:58:15.005Z,4.40
2023-04-15T18:00:43.636Z,4.60
2023-04-15T18:03:12.451Z,5.07
2023-04-15T18:05:42.892Z,6.28
2023-04-15T18:08:11.680Z,5.57
2023-04-15T18:10:40.586Z,5.53
2023-04-15T18:13:09.252Z,5.07
2023-04-15T18:15:37.984Z,5.43
2023-04-15T18:18:06.883Z,6.32
2023-04-15T18:20:36.044Z,6.85
2023-04-15T18:23:06.308Z,6.50
2023-04-15T18:25:34.994Z,6.57
2023-04-15T18:28:03.781Z,6.72
2023-04-15T18:30:32.433Z,6.00
2023-04-15T18:33:01.252Z,7.18
2023-04-15T18:35:31.056Z,11.13
2023-04-15T18:38:00.123Z,12.52
2023-04-15T18:40:30.626Z,11.27
2023-04-15T18:42:59.587Z,9.73
2023-04-15T18:45:28.763Z,11.23
2023-04-15T18:47:57.551Z,12.68
2023-04-15T18:50:26.263Z,12.55
2023-04-15T18:52:54.960Z,10.52
2023-04-15T18:55:24.163Z,11.35
2023-04-15T18:57:54.331Z,10.70
2023-04-15T19:00:25.492Z,12.40
2023-04-15T19:02:54.258Z,12.23
2023-04-15T19:05:23.129Z,12.00
2023-04-15T19:07:52.506Z,12.57
2023-04-15T19:10:21.814Z,11.38
2023-04-15T19:12:50.634Z,10.05
2023-04-15T19:15:20.826Z,10.27
2023-04-15T19:17:49.538Z,10.57
2023-04-15T19:20:18.620Z,11.50
2023-04-15T19:22:47.377Z,13.23
2023-04-15T19:25:16.065Z,11.05
2023-04-15T19:27:44.669Z,10.07
2023-04-15T19:30:13.439Z,9.27
2023-04-15T19:32:43.539Z,9.60
2023-04-15T19:35:12.159Z,7.60
2023-04-15T19:37:41.455Z,7.57
2023-04-15T19:40:10.578Z,7.22
2023-04-15T19:42:39.392Z,6.28
2023-04-15T19:45:08.613Z,8.73
2023-04-15T19:47:37.306Z,9.40
2023-04-15T19:50:08.085Z,14.20
2023-04-15T19:52:36.714Z,15.32
2023-04-15T19:55:05.746Z,13.50
2023-04-15T19:57:34.425Z,15.50
2023-04-15T20:00:03.457Z,14.90
2023-04-15T20:02:32.509Z,16.30
2023-04-15T20:05:01.183Z,12.00
2023-04-15T20:07:31.699Z,11.70
2023-04-15T20:10:00.689Z,11.55
2023-04-15T20:12:50.981Z,10.53
2023-04-15T20:15:18.325Z,9.90
2023-04-15T20:17:47.034Z,11.38
2023-04-15T20:20:16.085Z,12.02
2023-04-15T20:22:46.192Z,13.30
2023-04-15T20:25:15.178Z,11.13
2023-04-15T20:27:43.849Z,8.17
2023-04-15T20:30:12.865Z,9.60
2023-04-15T20:32:41.627Z,11.77
2023-04-15T20:35:10.522Z,10.18
2023-04-15T20:37:40.393Z,11.82
2023-04-15T20:40:11.278Z,11.57
2023-04-15T20:42:39.885Z,13.65
2023-04-15T20:45:09.204Z,12.93
2023-04-15T20:47:37.949Z,14.18
2023-04-15T20:50:06.891Z,12.82
2023-04-15T20:52:35.993Z,10.17
2023-04-15T20:55:04.657Z,11.67
2023-04-15T20:57:34.586Z,10.52
2023-04-15T21:00:04.958Z,9.20
2023-04-15T21:02:34.021Z,12.57
2023-04-15T21:05:02.817Z,13.35
2023-04-15T21:07:31.456Z,12.00
2023-04-15T21:10:00.631Z,11.77
2023-04-15T21:12:29.241Z,10.90
2023-04-15T21:14:59.290Z,31.35
2023-04-15T21:17:28.380Z,23.33
2023-04-15T21:19:57.120Z,13.32
2023-04-15T21:22:26.243Z,11.98
2023-04-15T21:24:54.990Z,12.90
2023-04-15T21:27:23.612Z,13.70
2023-04-15T21:29:52.263Z,11.70
2023-04-15T21:32:22.553Z,10.85
2023-04-15T21:34:51.198Z,10.75
2023-04-15T21:37:19.876Z,11.02
2023-04-15T21:39:48.499Z,10.68
2023-04-15T21:42:17.177Z,13.43
2023-04-15T21:44:45.824Z,15.70
2023-04-15T21:47:14.535Z,16.60
2023-04-15T21:49:44.689Z,18.13
2023-04-15T21:52:13.555Z,14.05
2023-04-15T21:54:42.163Z,11.38
2023-04-15T21:57:10.792Z,10.77
2023-04-15T21:59:39.415Z,11.30
2023-04-15T22:02:08.070Z,10.05
2023-04-15T22:04:36.714Z,9.02
2023-04-15T22:07:06.954Z,9.05
2023-04-15T22:09:35.700Z,9.18
2023-04-15T22:12:05.451Z,9.50
2023-04-15T22:14:34.221Z,8.75
2023-04-15T22:17:02.911Z,9.10
2023-04-15T22:19:31.633Z,8.68
2023-04-15T22:22:01.013Z,8.00
2023-04-15T22:24:39.714Z,7.57
2023-04-15T22:27:09.689Z,7.30
2023-04-15T22:29:38.343Z,8.30
2023-04-15T22:32:07.067Z,9.18
2023-04-15T22:34:36.312Z,7.65
2023-04-15T22:37:04.922Z,7.70
2023-04-15T22:39:35.185Z,8.52
2023-04-15T22:42:03.872Z,8.82
2023-04-15T22:44:32.496Z,9.32
2023-04-15T22:47:01.491Z,10.07
2023-04-15T22:49:30.432Z,10.67
2023-04-15T22:51:59.032Z,10.10
2023-04-15T22:54:27.622Z,9.55
2023-04-15T22:56:57.718Z,8.98
2023-04-15T22:59:26.761Z,8.57
2023-04-15T23:01:55.889Z,8.13
2023-04-15T23:04:26.747Z,7.40
2023-04-15T23:06:56.545Z,7.55
2023-04-15T23:09:25.167Z,8.23
2023-04-15T23:11:54.684Z,8.80
2023-04-15T23:14:26.107Z,8.57
2023-04-15T23:16:54.811Z,8.15
2023-04-15T23:19:23.387Z,8.00
2023-04-15T23:21:52.347Z,7.22
2023-04-15T23:24:21.097Z,7.10
2023-04-15T23:26:49.735Z,6.65
2023-04-15T23:29:18.456Z,7.47
2023-04-15T23:31:48.442Z,6.05
2023-04-15T23:34:17.158Z,6.68
2023-04-15T23:36:46.768Z,6.63
2023-04-15T23:39:15.743Z,6.47
2023-04-15T23:41:44.341Z,7.33
2023-04-15T23:44:13.048Z,7.97
2023-04-15T23:46:41.701Z,7.97
2023-04-15T23:49:11.800Z,7.70
2023-04-15T23:51:40.624Z,7.68
2023-04-15T23:54:09.302Z,7.47
2023-04-15T23:56:38.305Z,7.70
2023-04-15T23:59:07.117Z,7.72
